sensor_id;sensor_type;location;lat;lon;timestamp;P1;durP1;ratioP1;P2;durP2;ratioP2
5026;SDS011;2532;52.480;13.354;2023-09-19T04:01:09;5.53;;;3.93;;
5026;SDS011;2532;52.480;13.354;2023-09-19T04:03:38;5.63;;;3.67;;
5026;SDS011;2532;52.480;13.354;2023-09-19T04:06:12;5.37;;;3.60;;
5026;SDS011;2532;52.480;13.354;2023-09-19T04:08:39;7.40;;;4.33;;
5026;SDS011;2532;52.480;13.354;2023-09-19T04:11:06;4.40;;;3.43;;
5026;SDS011;2532;52.480;13.354;2023-09-19T04:13:33;6.60;;;5.23;;
5026;SDS011;2532;52.480;13.354;2023-09-19T04:16:00;3.30;;;2.63;;
5026;SDS011;2532;52.480;13.354;2023-09-19T04:18:30;5.93;;;2.87;;
5026;SDS011;2532;52.480;13.354;2023-09-19T04:20:58;7.00;;;2.83;;
5026;SDS011;2532;52.480;13.354;2023-09-19T04:23:27;3.97;;;2.53;;
5026;SDS011;2532;52.480;13.354;2023-09-19T04:25:54;7.67;;;2.80;;
5026;SDS011;2532;52.480;13.354;2023-09-19T04:28:22;4.63;;;2.40;;
5026;SDS011;2532;52.480;13.354;2023-09-19T04:30:49;5.53;;;2.70;;
5026;SDS011;2532;52.480;13.354;2023-09-19T04:33:16;11.40;;;2.67;;
5026;SDS011;2532;52.480;13.354;2023-09-19T04:35:44;3.23;;;2.37;;
5026;SDS011;2532;52.480;13.354;2023-09-19T04:38:11;4.80;;;2.60;;
5026;SDS011;2532;52.480;13.354;2023-09-19T04:40:40;4.27;;;2.70;;
5026;SDS011;2532;52.480;13.354;2023-09-19T04:43:07;3.20;;;2.57;;
5026;SDS011;2532;52.480;13.354;2023-09-19T04:45:33;6.77;;;3.20;;
5026;SDS011;2532;52.480;13.354;2023-09-19T04:48:00;3.70;;;2.47;;
5026;SDS011;2532;52.480;13.354;2023-09-19T04:50:28;3.40;;;2.87;;
5026;SDS011;2532;52.480;13.354;2023-09-19T04:52:56;2.70;;;2.40;;
5026;SDS011;2532;52.480;13.354;2023-09-19T04:55:24;5.40;;;3.00;;
5026;SDS011;2532;52.480;13.354;2023-09-19T04:57:51;6.73;;;2.70;;
5026;SDS011;2532;52.480;13.354;2023-09-19T05:00:19;4.40;;;2.40;;
5026;SDS011;2532;52.480;13.354;2023-09-19T05:02:49;7.63;;;2.70;;
5026;SDS011;2532;52.480;13.354;2023-09-19T05:05:16;3.70;;;2.40;;
5026;SDS011;2532;52.480;13.354;2023-09-19T05:07:44;4.77;;;2.67;;
5026;SDS011;2532;52.480;13.354;2023-09-19T05:10:13;4.50;;;2.67;;
5026;SDS011;2532;52.480;13.354;2023-09-19T05:12:41;7.90;;;2.97;;
5026;SDS011;2532;52.480;13.354;2023-09-19T05:15:10;5.30;;;3.20;;
5026;SDS011;2532;52.480;13.354;2023-09-19T05:17:37;3.63;;;2.50;;
5026;SDS011;2532;52.480;13.354;2023-09-19T05:20:06;4.47;;;2.90;;
5026;SDS011;2532;52.480;13.354;2023-09-19T05:22:37;4.10;;;3.07;;
5026;SDS011;2532;52.480;13.354;2023-09-19T05:25:06;6.50;;;3.00;;
5026;SDS011;2532;52.480;13.354;2023-09-19T05:27:35;3.70;;;2.70;;
5026;SDS011;2532;52.480;13.354;2023-09-19T05:30:02;5.33;;;3.00;;
5026;SDS011;2532;52.480;13.354;2023-09-19T05:32:29;3.93;;;2.83;;
5026;SDS011;2532;52.480;13.354;2023-09-19T05:34:56;7.40;;;3.30;;
5026;SDS011;2532;52.480;13.354;2023-09-19T05:37:23;5.33;;;2.70;;
5026;SDS011;2532;52.480;13.354;2023-09-19T05:39:51;6.20;;;2.93;;
5026;SDS011;2532;52.480;13.354;2023-09-19T05:42:18;5.77;;;3.30;;
5026;SDS011;2532;52.480;13.354;2023-09-19T05:44:47;8.03;;;2.87;;
5026;SDS011;2532;52.480;13.354;2023-09-19T05:47:14;4.30;;;2.97;;
5026;SDS011;2532;52.480;13.354;2023-09-19T05:49:41;8.00;;;3.70;;
5026;SDS011;2532;52.480;13.354;2023-09-19T05:52:09;3.80;;;2.67;;
5026;SDS011;2532;52.480;13.354;2023-09-19T05:54:35;5.23;;;2.80;;
5026;SDS011;2532;52.480;13.354;2023-09-19T05:57:03;9.10;;;2.93;;
5026;SDS011;2532;52.480;13.354;2023-09-19T05:59:30;3.43;;;3.13;;
5026;SDS011;2532;52.480;13.354;2023-09-19T06:02:00;5.87;;;3.13;;
5026;SDS011;2532;52.480;13.354;2023-09-19T06:04:27;4.30;;;2.90;;
5026;SDS011;2532;52.480;13.354;2023-09-19T06:06:55;6.10;;;2.90;;
5026;SDS011;2532;52.480;13.354;2023-09-19T06:09:23;7.67;;;3.10;;
5026;SDS011;2532;52.480;13.354;2023-09-19T06:11:52;4.03;;;2.97;;
5026;SDS011;2532;52.480;13.354;2023-09-19T06:14:20;5.37;;;2.80;;
5026;SDS011;2532;52.480;13.354;2023-09-19T06:16:49;5.43;;;3.20;;
5026;SDS011;2532;52.480;13.354;2023-09-19T06:19:20;7.27;;;2.97;;
5026;SDS011;2532;52.480;13.354;2023-09-19T06:21:51;4.70;;;3.00;;
5026;SDS011;2532;52.480;13.354;2023-09-19T06:24:19;9.27;;;3.27;;
5026;SDS011;2532;52.480;13.354;2023-09-19T06:26:47;4.37;;;3.03;;
5026;SDS011;2532;52.480;13.354;2023-09-19T06:29:14;6.23;;;3.00;;
5026;SDS011;2532;52.480;13.354;2023-09-19T06:31:41;7.63;;;3.23;;
5026;SDS011;2532;52.480;13.354;2023-09-19T06:34:09;5.07;;;3.40;;
5026;SDS011;2532;52.480;13.354;2023-09-19T06:36:38;5.20;;;3.23;;
5026;SDS011;2532;52.480;13.354;2023-09-19T06:39:06;6.83;;;3.57;;
5026;SDS011;2532;52.480;13.354;2023-09-19T06:41:36;5.53;;;3.30;;
5026;SDS011;2532;52.480;13.354;2023-09-19T06:44:04;4.20;;;2.93;;
5026;SDS011;2532;52.480;13.354;2023-09-19T06:46:32;9.17;;;3.40;;
5026;SDS011;2532;52.480;13.354;2023-09-19T06:49:00;7.70;;;3.23;;
5026;SDS011;2532;52.480;13.354;2023-09-19T06:51:31;7.23;;;2.83;;
5026;SDS011;2532;52.480;13.354;2023-09-19T06:54:00;4.10;;;3.30;;
5026;SDS011;2532;52.480;13.354;2023-09-19T06:56:30;13.50;;;3.90;;
5026;SDS011;2532;52.480;13.354;2023-09-19T06:58:58;4.63;;;2.70;;
5026;SDS011;2532;52.480;13.354;2023-09-19T07:01:24;5.03;;;3.27;;
5026;SDS011;2532;52.480;13.354;2023-09-19T07:03:52;7.47;;;3.70;;
5026;SDS011;2532;52.480;13.354;2023-09-19T07:06:19;5.97;;;3.70;;
5026;SDS011;2532;52.480;13.354;2023-09-19T07:08:51;6.30;;;3.03;;
5026;SDS011;2532;52.480;13.354;2023-09-19T07:11:19;4.97;;;3.00;;
5026;SDS011;2532;52.480;13.354;2023-09-19T07:13:46;10.13;;;3.80;;
5026;SDS011;2532;52.480;13.354;2023-09-19T07:16:13;9.13;;;3.00;;
5026;SDS011;2532;52.480;13.354;2023-09-19T07:18:52;9.67;;;3.00;;
5026;SDS011;2532;52.480;13.354;2023-09-19T07:21:20;5.27;;;3.20;;
5026;SDS011;2532;52.480;13.354;2023-09-19T07:23:47;5.27;;;3.40;;
5026;SDS011;2532;52.480;13.354;2023-09-19T07:26:19;7.33;;;3.50;;
5026;SDS011;2532;52.480;13.354;2023-09-19T07:28:46;5.30;;;3.50;;
5026;SDS011;2532;52.480;13.354;2023-09-19T07:31:13;4.37;;;3.20;;
5026;SDS011;2532;52.480;13.354;2023-09-19T07:33:40;4.57;;;3.30;;
5026;SDS011;2532;52.480;13.354;2023-09-19T07:36:09;9.70;;;3.60;;
5026;SDS011;2532;52.480;13.354;2023-09-19T07:38:39;3.50;;;3.20;;
5026;SDS011;2532;52.480;13.354;2023-09-19T07:41:06;6.10;;;3.90;;
5026;SDS011;2532;52.480;13.354;2023-09-19T07:43:36;6.73;;;3.60;;
5026;SDS011;2532;52.480;13.354;2023-09-19T07:46:04;4.80;;;3.50;;
5026;SDS011;2532;52.480;13.354;2023-09-19T07:48:34;8.53;;;3.90;;
5026;SDS011;2532;52.480;13.354;2023-09-19T07:51:02;29.97;;;5.00;;
5026;SDS011;2532;52.480;13.354;2023-09-19T07:53:29;6.90;;;3.80;;
5026;SDS011;2532;52.480;13.354;2023-09-19T07:56:03;7.97;;;4.10;;
5026;SDS011;2532;52.480;13.354;2023-09-19T07:58:31;19.30;;;4.40;;
5026;SDS011;2532;52.480;13.354;2023-09-19T08:01:03;18.00;;;4.17;;
5026;SDS011;2532;52.480;13.354;2023-09-19T08:03:31;13.77;;;4.00;;
5026;SDS011;2532;52.480;13.354;2023-09-19T08:05:59;12.17;;;4.27;;
5026;SDS011;2532;52.480;13.354;2023-09-19T08:08:26;22.73;;;4.17;;
5026;SDS011;2532;52.480;13.354;2023-09-19T08:10:53;17.73;;;3.77;;
5026;SDS011;2532;52.480;13.354;2023-09-19T08:13:22;6.17;;;3.57;;
5026;SDS011;2532;52.480;13.354;2023-09-19T08:15:49;13.07;;;3.70;;
5026;SDS011;2532;52.480;13.354;2023-09-19T08:18:19;6.23;;;3.37;;
5026;SDS011;2532;52.480;13.354;2023-09-19T08:20:49;14.40;;;3.80;;
5026;SDS011;2532;52.480;13.354;2023-09-19T08:23:16;8.90;;;4.03;;
5026;SDS011;2532;52.480;13.354;2023-09-19T08:25:45;7.00;;;3.40;;
5026;SDS011;2532;52.480;13.354;2023-09-19T08:28:12;9.20;;;3.57;;
5026;SDS011;2532;52.480;13.354;2023-09-19T08:30:43;12.73;;;3.90;;
5026;SDS011;2532;52.480;13.354;2023-09-19T08:33:11;10.90;;;4.30;;
5026;SDS011;2532;52.480;13.354;2023-09-19T08:35:41;10.97;;;4.40;;
5026;SDS011;2532;52.480;13.354;2023-09-19T08:38:10;7.73;;;4.10;;
5026;SDS011;2532;52.480;13.354;2023-09-19T08:40:39;10.07;;;3.80;;
5026;SDS011;2532;52.480;13.354;2023-09-19T08:43:07;15.27;;;4.77;;
5026;SDS011;2532;52.480;13.354;2023-09-19T08:45:34;8.50;;;4.03;;
5026;SDS011;2532;52.480;13.354;2023-09-19T08:50:57;5.67;;;4.00;;
5026;SDS011;2532;52.480;13.354;2023-09-19T08:53:30;6.80;;;3.70;;
5026;SDS011;2532;52.480;13.354;2023-09-19T08:56:03;6.40;;;4.13;;
5026;SDS011;2532;52.480;13.354;2023-09-19T08:58:34;9.83;;;3.73;;
5026;SDS011;2532;52.480;13.354;2023-09-19T09:01:09;8.90;;;4.03;;
5026;SDS011;2532;52.480;13.354;2023-09-19T09:03:39;14.90;;;5.10;;
5026;SDS011;2532;52.480;13.354;2023-09-19T09:06:13;9.43;;;3.80;;
5026;SDS011;2532;52.480;13.354;2023-09-19T09:08:40;6.83;;;3.83;;
5026;SDS011;2532;52.480;13.354;2023-09-19T09:11:09;5.67;;;3.40;;
5026;SDS011;2532;52.480;13.354;2023-09-19T09:13:36;7.30;;;3.67;;
5026;SDS011;2532;52.480;13.354;2023-09-19T09:16:04;8.90;;;3.80;;
5026;SDS011;2532;52.480;13.354;2023-09-19T09:18:31;9.43;;;3.67;;
5026;SDS011;2532;52.480;13.354;2023-09-19T09:20:58;10.47;;;4.20;;
5026;SDS011;2532;52.480;13.354;2023-09-19T09:23:26;11.80;;;4.20;;
5026;SDS011;2532;52.480;13.354;2023-09-19T09:25:55;7.27;;;3.93;;
5026;SDS011;2532;52.480;13.354;2023-09-19T09:28:24;10.77;;;3.97;;
5026;SDS011;2532;52.480;13.354;2023-09-19T09:30:53;9.73;;;4.50;;
5026;SDS011;2532;52.480;13.354;2023-09-19T09:33:21;10.90;;;4.40;;
5026;SDS011;2532;52.480;13.354;2023-09-19T09:35:49;7.43;;;4.10;;
5026;SDS011;2532;52.480;13.354;2023-09-19T09:38:18;8.30;;;4.20;;
5026;SDS011;2532;52.480;13.354;2023-09-19T09:40:48;9.63;;;4.77;;
5026;SDS011;2532;52.480;13.354;2023-09-19T09:43:25;9.90;;;4.47;;
5026;SDS011;2532;52.480;13.354;2023-09-19T09:46:09;8.73;;;4.40;;
5026;SDS011;2532;52.480;13.354;2023-09-19T09:49:10;7.80;;;4.50;;
5026;SDS011;2532;52.480;13.354;2023-09-19T09:51:50;6.53;;;3.70;;
5026;SDS011;2532;52.480;13.354;2023-09-19T09:54:30;8.30;;;3.77;;
5026;SDS011;2532;52.480;13.354;2023-09-19T09:57:04;7.77;;;3.67;;
5026;SDS011;2532;52.480;13.354;2023-09-19T09:59:46;11.97;;;3.63;;
5026;SDS011;2532;52.480;13.354;2023-09-19T10:02:15;10.03;;;3.80;;
5026;SDS011;2532;52.480;13.354;2023-09-19T10:04:48;7.27;;;3.90;;
5026;SDS011;2532;52.480;13.354;2023-09-19T10:07:39;8.23;;;4.37;;
5026;SDS011;2532;52.480;13.354;2023-09-19T10:10:12;5.40;;;3.80;;
5026;SDS011;2532;52.480;13.354;2023-09-19T10:12:48;10.33;;;4.00;;
5026;SDS011;2532;52.480;13.354;2023-09-19T10:15:16;9.97;;;6.30;;
5026;SDS011;2532;52.480;13.354;2023-09-19T10:17:46;11.30;;;5.77;;
5026;SDS011;2532;52.480;13.354;2023-09-19T10:20:14;9.90;;;6.43;;
5026;SDS011;2532;52.480;13.354;2023-09-19T10:23:03;10.83;;;5.50;;
5026;SDS011;2532;52.480;13.354;2023-09-19T10:25:39;10.90;;;5.20;;
5026;SDS011;2532;52.480;13.354;2023-09-19T10:28:09;8.10;;;5.30;;
5026;SDS011;2532;52.480;13.354;2023-09-19T10:30:40;7.93;;;4.73;;
5026;SDS011;2532;52.480;13.354;2023-09-19T10:33:10;11.60;;;5.60;;
5026;SDS011;2532;52.480;13.354;2023-09-19T10:35:37;9.70;;;5.40;;
5026;SDS011;2532;52.480;13.354;2023-09-19T10:38:06;11.50;;;5.67;;
5026;SDS011;2532;52.480;13.354;2023-09-19T10:40:36;14.17;;;5.80;;
5026;SDS011;2532;52.480;13.354;2023-09-19T10:43:11;12.20;;;6.40;;
5026;SDS011;2532;52.480;13.354;2023-09-19T10:45:39;10.37;;;6.93;;
5026;SDS011;2532;52.480;13.354;2023-09-19T10:48:09;11.00;;;6.10;;
5026;SDS011;2532;52.480;13.354;2023-09-19T10:50:41;13.30;;;6.60;;
5026;SDS011;2532;52.480;13.354;2023-09-19T10:53:11;10.13;;;5.83;;
5026;SDS011;2532;52.480;13.354;2023-09-19T10:55:40;9.37;;;5.40;;
5026;SDS011;2532;52.480;13.354;2023-09-19T10:58:25;12.43;;;6.00;;
5026;SDS011;2532;52.480;13.354;2023-09-19T11:00:54;11.13;;;6.00;;
5026;SDS011;2532;52.480;13.354;2023-09-19T11:03:26;15.00;;;6.47;;
5026;SDS011;2532;52.480;13.354;2023-09-19T11:06:05;9.00;;;5.67;;
5026;SDS011;2532;52.480;13.354;2023-09-19T11:08:51;14.50;;;5.80;;
5026;SDS011;2532;52.480;13.354;2023-09-19T11:11:41;19.97;;;5.67;;
5026;SDS011;2532;52.480;13.354;2023-09-19T11:14:15;11.40;;;5.20;;
5026;SDS011;2532;52.480;13.354;2023-09-19T11:20:24;10.90;;;5.40;;
5026;SDS011;2532;52.480;13.354;2023-09-19T11:23:17;11.00;;;5.83;;
5026;SDS011;2532;52.480;13.354;2023-09-19T11:25:56;13.23;;;5.47;;
5026;SDS011;2532;52.480;13.354;2023-09-19T11:28:35;19.53;;;5.53;;
5026;SDS011;2532;52.480;13.354;2023-09-19T11:40:44;13.23;;;5.90;;
5026;SDS011;2532;52.480;13.354;2023-09-19T11:43:32;8.77;;;5.30;;
5026;SDS011;2532;52.480;13.354;2023-09-19T11:46:09;16.00;;;5.47;;
5026;SDS011;2532;52.480;13.354;2023-09-19T11:48:39;8.77;;;5.70;;
5026;SDS011;2532;52.480;13.354;2023-09-19T11:51:14;8.10;;;4.50;;
5026;SDS011;2532;52.480;13.354;2023-09-19T11:53:53;10.47;;;5.13;;
5026;SDS011;2532;52.480;13.354;2023-09-19T11:56:21;8.50;;;4.67;;
5026;SDS011;2532;52.480;13.354;2023-09-19T11:58:49;10.53;;;5.60;;
5026;SDS011;2532;52.480;13.354;2023-09-19T12:01:21;8.10;;;4.50;;
5026;SDS011;2532;52.480;13.354;2023-09-19T12:03:53;8.33;;;4.30;;
5026;SDS011;2532;52.480;13.354;2023-09-19T12:06:23;8.90;;;4.30;;
5026;SDS011;2532;52.480;13.354;2023-09-19T12:08:50;7.53;;;4.17;;
5026;SDS011;2532;52.480;13.354;2023-09-19T12:11:19;8.10;;;4.50;;
5026;SDS011;2532;52.480;13.354;2023-09-19T12:13:48;8.53;;;3.90;;
5026;SDS011;2532;52.480;13.354;2023-09-19T12:16:15;7.70;;;4.27;;
5026;SDS011;2532;52.480;13.354;2023-09-19T12:18:47;7.77;;;4.63;;
5026;SDS011;2532;52.480;13.354;2023-09-19T12:21:26;12.93;;;4.50;;
5026;SDS011;2532;52.480;13.354;2023-09-19T12:24:04;6.47;;;4.10;;
5026;SDS011;2532;52.480;13.354;2023-09-19T12:26:39;8.80;;;4.10;;
5026;SDS011;2532;52.480;13.354;2023-09-19T12:29:18;9.13;;;3.63;;
5026;SDS011;2532;52.480;13.354;2023-09-19T12:31:47;7.27;;;4.50;;
5026;SDS011;2532;52.480;13.354;2023-09-19T12:34:19;7.73;;;4.70;;
5026;SDS011;2532;52.480;13.354;2023-09-19T12:36:49;8.53;;;4.50;;
5026;SDS011;2532;52.480;13.354;2023-09-19T12:39:30;8.00;;;4.50;;
5026;SDS011;2532;52.480;13.354;2023-09-19T12:41:57;6.83;;;4.13;;
5026;SDS011;2532;52.480;13.354;2023-09-19T12:44:24;9.17;;;4.73;;
5026;SDS011;2532;52.480;13.354;2023-09-19T12:46:51;9.27;;;4.50;;
5026;SDS011;2532;52.480;13.354;2023-09-19T12:49:19;6.90;;;4.73;;
5026;SDS011;2532;52.480;13.354;2023-09-19T12:51:49;9.27;;;3.97;;
5026;SDS011;2532;52.480;13.354;2023-09-19T12:54:21;10.30;;;4.67;;
5026;SDS011;2532;52.480;13.354;2023-09-19T12:56:50;7.23;;;3.70;;
5026;SDS011;2532;52.480;13.354;2023-09-19T12:59:19;9.03;;;3.80;;
5026;SDS011;2532;52.480;13.354;2023-09-19T13:02:03;10.20;;;4.63;;
5026;SDS011;2532;52.480;13.354;2023-09-19T13:04:32;9.77;;;4.77;;
5026;SDS011;2532;52.480;13.354;2023-09-19T13:07:06;8.70;;;5.13;;
5026;SDS011;2532;52.480;13.354;2023-09-19T13:09:34;12.07;;;4.90;;
5026;SDS011;2532;52.480;13.354;2023-09-19T13:12:01;12.63;;;4.07;;
5026;SDS011;2532;52.480;13.354;2023-09-19T13:14:29;11.37;;;4.53;;
5026;SDS011;2532;52.480;13.354;2023-09-19T13:16:59;7.90;;;3.70;;
5026;SDS011;2532;52.480;13.354;2023-09-19T13:19:35;8.20;;;4.70;;
5026;SDS011;2532;52.480;13.354;2023-09-19T13:25:07;6.97;;;3.90;;
5026;SDS011;2532;52.480;13.354;2023-09-19T13:27:42;7.60;;;3.60;;
5026;SDS011;2532;52.480;13.354;2023-09-19T13:30:11;7.50;;;5.00;;
5026;SDS011;2532;52.480;13.354;2023-09-19T13:32:38;10.80;;;4.20;;
5026;SDS011;2532;52.480;13.354;2023-09-19T13:35:06;10.20;;;4.00;;
5026;SDS011;2532;52.480;13.354;2023-09-19T13:37:35;9.20;;;4.30;;
5026;SDS011;2532;52.480;13.354;2023-09-19T13:40:05;6.23;;;3.90;;
5026;SDS011;2532;52.480;13.354;2023-09-19T13:42:34;9.30;;;5.50;;
5026;SDS011;2532;52.480;13.354;2023-09-19T13:45:02;8.50;;;4.07;;
5026;SDS011;2532;52.480;13.354;2023-09-19T13:47:30;9.47;;;4.37;;
5026;SDS011;2532;52.480;13.354;2023-09-19T13:49:57;7.60;;;4.40;;
5026;SDS011;2532;52.480;13.354;2023-09-19T13:52:25;8.23;;;5.57;;
5026;SDS011;2532;52.480;13.354;2023-09-19T13:54:54;6.90;;;3.87;;
5026;SDS011;2532;52.480;13.354;2023-09-19T13:57:23;6.37;;;3.83;;
5026;SDS011;2532;52.480;13.354;2023-09-19T13:59:51;5.80;;;4.00;;
5026;SDS011;2532;52.480;13.354;2023-09-19T14:02:19;8.17;;;5.00;;
5026;SDS011;2532;52.480;13.354;2023-09-19T14:04:47;7.00;;;4.50;;
5026;SDS011;2532;52.480;13.354;2023-09-19T14:07:14;10.60;;;5.27;;
5026;SDS011;2532;52.480;13.354;2023-09-19T14:09:43;8.43;;;5.07;;
5026;SDS011;2532;52.480;13.354;2023-09-19T14:12:13;8.63;;;3.67;;
5026;SDS011;2532;52.480;13.354;2023-09-19T14:14:42;6.30;;;4.03;;
5026;SDS011;2532;52.480;13.354;2023-09-19T14:17:10;9.50;;;5.00;;
5026;SDS011;2532;52.480;13.354;2023-09-19T14:19:40;8.70;;;3.90;;
5026;SDS011;2532;52.480;13.354;2023-09-19T14:22:08;8.50;;;4.90;;
5026;SDS011;2532;52.480;13.354;2023-09-19T14:24:36;11.40;;;4.40;;
5026;SDS011;2532;52.480;13.354;2023-09-19T14:27:03;5.90;;;3.50;;
5026;SDS011;2532;52.480;13.354;2023-09-19T14:29:32;9.90;;;4.20;;
5026;SDS011;2532;52.480;13.354;2023-09-19T14:32:00;7.07;;;3.87;;
5026;SDS011;2532;52.480;13.354;2023-09-19T14:34:27;6.37;;;3.67;;
5026;SDS011;2532;52.480;13.354;2023-09-19T14:36:54;8.60;;;3.70;;
5026;SDS011;2532;52.480;13.354;2023-09-19T14:39:21;5.13;;;3.83;;
5026;SDS011;2532;52.480;13.354;2023-09-19T14:41:49;10.00;;;4.33;;
5026;SDS011;2532;52.480;13.354;2023-09-19T14:44:16;10.40;;;5.50;;
5026;SDS011;2532;52.480;13.354;2023-09-19T14:46:43;8.83;;;4.50;;
5026;SDS011;2532;52.480;13.354;2023-09-19T14:49:12;8.83;;;5.10;;
5026;SDS011;2532;52.480;13.354;2023-09-19T14:51:41;9.40;;;5.30;;
5026;SDS011;2532;52.480;13.354;2023-09-19T14:54:09;11.87;;;5.00;;
5026;SDS011;2532;52.480;13.354;2023-09-19T14:56:36;8.53;;;4.53;;
5026;SDS011;2532;52.480;13.354;2023-09-19T14:59:03;8.67;;;4.50;;
5026;SDS011;2532;52.480;13.354;2023-09-19T15:01:30;10.50;;;5.13;;
5026;SDS011;2532;52.480;13.354;2023-09-19T15:03:57;10.33;;;5.10;;
5026;SDS011;2532;52.480;13.354;2023-09-19T15:06:27;10.60;;;4.97;;
5026;SDS011;2532;52.480;13.354;2023-09-19T15:08:54;10.47;;;5.33;;
5026;SDS011;2532;52.480;13.354;2023-09-19T15:11:22;11.40;;;5.90;;
5026;SDS011;2532;52.480;13.354;2023-09-19T15:13:51;15.20;;;5.70;;
5026;SDS011;2532;52.480;13.354;2023-09-19T15:16:18;11.20;;;4.63;;
5026;SDS011;2532;52.480;13.354;2023-09-19T15:18:45;6.90;;;4.73;;
5026;SDS011;2532;52.480;13.354;2023-09-19T15:21:13;15.83;;;5.30;;
5026;SDS011;2532;52.480;13.354;2023-09-19T15:23:42;13.33;;;5.03;;
5026;SDS011;2532;52.480;13.354;2023-09-19T15:26:12;7.20;;;4.00;;
5026;SDS011;2532;52.480;13.354;2023-09-19T15:28:42;8.80;;;4.93;;
5026;SDS011;2532;52.480;13.354;2023-09-19T15:31:09;7.07;;;4.37;;
5026;SDS011;2532;52.480;13.354;2023-09-19T15:33:38;11.07;;;4.63;;
5026;SDS011;2532;52.480;13.354;2023-09-19T15:36:05;7.77;;;4.37;;
5026;SDS011;2532;52.480;13.354;2023-09-19T15:41:24;13.03;;;4.87;;
5026;SDS011;2532;52.480;13.354;2023-09-19T15:43:52;8.43;;;4.50;;
5026;SDS011;2532;52.480;13.354;2023-09-19T15:46:19;10.90;;;5.30;;
5026;SDS011;2532;52.480;13.354;2023-09-19T15:48:46;9.90;;;4.63;;
5026;SDS011;2532;52.480;13.354;2023-09-19T15:51:13;11.17;;;4.70;;
5026;SDS011;2532;52.480;13.354;2023-09-19T15:53:41;9.00;;;4.50;;
5026;SDS011;2532;52.480;13.354;2023-09-19T15:56:11;6.07;;;4.00;;
5026;SDS011;2532;52.480;13.354;2023-09-19T15:58:39;8.73;;;5.07;;
5026;SDS011;2532;52.480;13.354;2023-09-19T16:01:06;8.73;;;4.33;;
5026;SDS011;2532;52.480;13.354;2023-09-19T16:03:34;9.13;;;4.80;;
5026;SDS011;2532;52.480;13.354;2023-09-19T16:06:01;8.73;;;4.20;;
5026;SDS011;2532;52.480;13.354;2023-09-19T16:08:34;14.93;;;5.17;;
5026;SDS011;2532;52.480;13.354;2023-09-19T16:11:02;13.23;;;4.80;;
5026;SDS011;2532;52.480;13.354;2023-09-19T16:13:31;16.00;;;5.47;;
5026;SDS011;2532;52.480;13.354;2023-09-19T16:15:58;4.83;;;3.13;;
5026;SDS011;2532;52.480;13.354;2023-09-19T16:18:26;7.63;;;3.60;;
5026;SDS011;2532;52.480;13.354;2023-09-19T16:21:00;10.73;;;4.00;;
5026;SDS011;2532;52.480;13.354;2023-09-19T16:23:28;7.40;;;3.40;;
5026;SDS011;2532;52.480;13.354;2023-09-19T16:26:00;9.33;;;3.57;;
5026;SDS011;2532;52.480;13.354;2023-09-19T16:28:31;3.87;;;3.33;;
5026;SDS011;2532;52.480;13.354;2023-09-19T16:30:59;6.60;;;3.30;;
5026;SDS011;2532;52.480;13.354;2023-09-19T16:33:26;8.90;;;3.80;;
5026;SDS011;2532;52.480;13.354;2023-09-19T16:35:54;6.77;;;3.60;;
5026;SDS011;2532;52.480;13.354;2023-09-19T16:38:21;10.07;;;3.90;;
5026;SDS011;2532;52.480;13.354;2023-09-19T16:40:52;9.57;;;4.00;;
5026;SDS011;2532;52.480;13.354;2023-09-19T16:43:20;8.70;;;3.40;;
5026;SDS011;2532;52.480;13.354;2023-09-19T16:45:55;8.73;;;4.07;;
5026;SDS011;2532;52.480;13.354;2023-09-19T16:51:45;8.90;;;4.97;;
5026;SDS011;2532;52.480;13.354;2023-09-19T16:54:12;7.57;;;3.57;;
5026;SDS011;2532;52.480;13.354;2023-09-19T16:56:39;5.60;;;3.33;;
5026;SDS011;2532;52.480;13.354;2023-09-19T16:59:06;10.63;;;4.00;;
5026;SDS011;2532;52.480;13.354;2023-09-19T17:01:36;10.13;;;3.83;;
5026;SDS011;2532;52.480;13.354;2023-09-19T17:04:04;5.53;;;3.77;;
5026;SDS011;2532;52.480;13.354;2023-09-19T17:06:33;6.70;;;4.23;;
5026;SDS011;2532;52.480;13.354;2023-09-19T17:09:01;8.97;;;4.00;;
5026;SDS011;2532;52.480;13.354;2023-09-19T17:11:30;7.10;;;3.77;;
5026;SDS011;2532;52.480;13.354;2023-09-19T17:13:59;6.53;;;3.80;;
5026;SDS011;2532;52.480;13.354;2023-09-19T17:16:26;11.43;;;4.17;;
5026;SDS011;2532;52.480;13.354;2023-09-19T17:18:56;13.47;;;4.03;;
5026;SDS011;2532;52.480;13.354;2023-09-19T17:21:24;9.27;;;3.80;;
5026;SDS011;2532;52.480;13.354;2023-09-19T17:23:51;8.57;;;4.30;;
5026;SDS011;2532;52.480;13.354;2023-09-19T17:26:20;9.50;;;4.03;;
5026;SDS011;2532;52.480;13.354;2023-09-19T17:28:48;11.63;;;3.93;;
5026;SDS011;2532;52.480;13.354;2023-09-19T17:31:17;7.00;;;3.40;;
5026;SDS011;2532;52.480;13.354;2023-09-19T17:33:46;14.13;;;4.63;;
5026;SDS011;2532;52.480;13.354;2023-09-19T17:36:17;8.53;;;3.93;;
5026;SDS011;2532;52.480;13.354;2023-09-19T17:38:46;8.50;;;4.00;;
5026;SDS011;2532;52.480;13.354;2023-09-19T17:41:14;9.60;;;4.60;;
5026;SDS011;2532;52.480;13.354;2023-09-19T17:43:52;9.40;;;3.73;;
5026;SDS011;2532;52.480;13.354;2023-09-19T17:46:19;14.03;;;4.60;;
5026;SDS011;2532;52.480;13.354;2023-09-19T17:48:50;9.40;;;4.10;;
5026;SDS011;2532;52.480;13.354;2023-09-19T17:51:21;10.43;;;4.37;;
5026;SDS011;2532;52.480;13.354;2023-09-19T17:53:48;10.40;;;4.97;;
5026;SDS011;2532;52.480;13.354;2023-09-19T17:56:16;9.23;;;4.27;;
5026;SDS011;2532;52.480;13.354;2023-09-19T17:58:44;7.17;;;4.23;;
5026;SDS011;2532;52.480;13.354;2023-09-19T18:01:19;5.37;;;3.57;;
5026;SDS011;2532;52.480;13.354;2023-09-19T18:03:47;8.13;;;4.43;;
5026;SDS011;2532;52.480;13.354;2023-09-19T18:06:17;8.50;;;4.20;;
5026;SDS011;2532;52.480;13.354;2023-09-19T18:08:47;8.30;;;5.20;;
5026;SDS011;2532;52.480;13.354;2023-09-19T18:11:14;8.13;;;4.23;;
5026;SDS011;2532;52.480;13.354;2023-09-19T18:13:43;7.77;;;4.17;;
5026;SDS011;2532;52.480;13.354;2023-09-19T18:16:10;7.00;;;3.83;;
5026;SDS011;2532;52.480;13.354;2023-09-19T18:18:38;5.27;;;4.10;;
5026;SDS011;2532;52.480;13.354;2023-09-19T18:21:06;12.70;;;3.97;;
5026;SDS011;2532;52.480;13.354;2023-09-19T18:23:34;6.67;;;4.10;;
5026;SDS011;2532;52.480;13.354;2023-09-19T18:26:02;12.87;;;4.93;;
5026;SDS011;2532;52.480;13.354;2023-09-19T18:28:30;9.37;;;4.53;;
5026;SDS011;2532;52.480;13.354;2023-09-19T18:30:57;12.70;;;4.57;;
5026;SDS011;2532;52.480;13.354;2023-09-19T18:33:27;11.97;;;4.97;;
5026;SDS011;2532;52.480;13.354;2023-09-19T18:35:59;10.50;;;4.83;;
5026;SDS011;2532;52.480;13.354;2023-09-19T18:38:28;7.07;;;4.57;;
5026;SDS011;2532;52.480;13.354;2023-09-19T18:40:55;10.07;;;4.93;;
5026;SDS011;2532;52.480;13.354;2023-09-19T18:43:23;8.40;;;4.07;;
5026;SDS011;2532;52.480;13.354;2023-09-19T18:45:56;11.10;;;5.00;;
5026;SDS011;2532;52.480;13.354;2023-09-19T18:48:24;13.00;;;6.87;;
5026;SDS011;2532;52.480;13.354;2023-09-19T18:51:03;11.40;;;5.10;;
5026;SDS011;2532;52.480;13.354;2023-09-19T18:53:33;9.87;;;4.30;;
5026;SDS011;2532;52.480;13.354;2023-09-19T18:56:04;10.90;;;4.43;;
5026;SDS011;2532;52.480;13.354;2023-09-19T18:58:34;7.87;;;4.07;;
5026;SDS011;2532;52.480;13.354;2023-09-19T19:01:02;7.77;;;4.13;;
5026;SDS011;2532;52.480;13.354;2023-09-19T19:03:29;10.23;;;3.83;;
5026;SDS011;2532;52.480;13.354;2023-09-19T19:05:57;10.50;;;3.73;;
5026;SDS011;2532;52.480;13.354;2023-09-19T19:08:24;8.20;;;4.17;;
5026;SDS011;2532;52.480;13.354;2023-09-19T19:10:51;12.00;;;4.10;;
5026;SDS011;2532;52.480;13.354;2023-09-19T19:13:20;9.40;;;4.13;;
5026;SDS011;2532;52.480;13.354;2023-09-19T19:15:49;13.27;;;4.13;;
5026;SDS011;2532;52.480;13.354;2023-09-19T19:18:16;9.23;;;3.60;;
5026;SDS011;2532;52.480;13.354;2023-09-19T19:20:46;7.90;;;3.63;;
5026;SDS011;2532;52.480;13.354;2023-09-19T19:23:13;9.17;;;4.30;;
5026;SDS011;2532;52.480;13.354;2023-09-19T19:25:46;10.00;;;4.03;;
5026;SDS011;2532;52.480;13.354;2023-09-19T19:28:18;11.07;;;4.50;;
5026;SDS011;2532;52.480;13.354;2023-09-19T19:30:47;8.93;;;3.53;;
5026;SDS011;2532;52.480;13.354;2023-09-19T19:33:37;8.40;;;4.07;;
5026;SDS011;2532;52.480;13.354;2023-09-19T19:36:05;6.77;;;3.20;;
5026;SDS011;2532;52.480;13.354;2023-09-19T19:38:37;11.20;;;4.30;;